Time;durP1;ratioP1;P1;durP2;ratioP2;P2;SDS_P1;SDS_P2;PMS_P1;PMS_P2;Temp;Humidity;BMP_temperature;BMP_pressure;BME280_temperature;BME280_humidity;BME280_pressure;Samples;Min_cycle;Max_cycle;Signal;HPM_P1;HPM_P2
2022/05/21 00:00:31;;;;;;;2.33;1.70;;;;;;;13.43;100.00;62240.66;5093420;28;20203;-72
2022/05/21 00:02:58;;;;;;;3.43;1.70;;;;;;;13.45;100.00;62238.25;5093183;28;20245;-73
2022/05/21 00:05:28;;;;;;;1.80;1.70;;;;;;;13.46;100.00;62241.88;5093047;28;20210;-71
2022/05/21 00:07:56;;;;;;;4.10;1.70;;;;;;;13.32;100.00;62226.31;5092794;28;20224;-72
2022/05/21 00:10:25;;;;;;;5.07;1.70;;;;;;;12.76;100.00;62168.69;5092843;28;20569;-72
2022/05/21 00:12:52;;;;;;;5.73;1.80;;;;;;;13.30;100.00;62227.25;5093096;28;20621;-72
2022/05/21 00:15:24;;;;;;;3.77;1.93;;;;;;;12.51;100.00;62142.41;5092724;28;20618;-73
2022/05/21 00:17:51;;;;;;;1.80;1.70;;;;;;;13.34;100.00;62225.91;5092838;28;20751;-72
2022/05/21 00:23:11;;;;;;;5.13;1.47;;;;;;;13.27;100.00;62224.03;5092973;28;20194;-73
2022/05/21 00:25:37;;;;;;;2.93;1.73;;;;;;;12.98;100.00;62189.78;5092874;28;20203;-71
2022/05/21 00:28:04;;;;;;;7.00;1.60;;;;;;;13.04;100.00;62198.78;5092520;28;20237;-72
2022/05/21 00:30:33;;;;;;;3.57;1.57;;;;;;;13.04;100.00;62196.22;5092607;28;20261;-71
2022/05/21 00:33:00;;;;;;;3.17;1.73;;;;;;;13.04;100.00;62198.78;5092376;28;20671;-71
2022/05/21 00:35:28;;;;;;;2.47;1.50;;;;;;;12.97;100.00;62186.13;5092390;28;20662;-72
2022/05/21 00:37:55;;;;;;;2.63;1.77;;;;;;;13.04;100.00;62198.78;5092624;28;20265;-70
2022/05/21 00:40:23;;;;;;;1.93;1.50;;;;;;;13.00;100.00;62194.47;5095907;28;20327;-71
2022/05/21 00:42:50;;;;;;;2.93;1.43;;;;;;;12.94;100.00;62182.91;5094069;28;20195;-72
2022/05/21 00:45:17;;;;;;;2.63;1.90;;;;;;;12.98;100.00;62192.31;5092521;28;20203;-72
2022/05/21 00:47:45;;;;;;;3.60;1.97;;;;;;;12.96;100.00;62185.06;5083957;28;20273;-72
2022/05/21 00:50:15;;;;;;;2.33;1.70;;;;;;;12.91;100.00;62179.69;5092430;28;20188;-72
2022/05/21 00:52:43;;;;;;;4.83;1.43;;;;;;;12.76;100.00;62166.66;5092087;28;20203;-73
2022/05/21 00:55:14;;;;;;;3.03;1.70;;;;;;;12.78;100.00;62165.75;5092343;28;20627;-73
2022/05/21 00:57:45;;;;;;;2.90;1.53;;;;;;;12.79;100.00;62174.47;5092502;28;20209;-72
2022/05/21 01:00:14;;;;;;;2.03;1.70;;;;;;;12.60;100.00;62147.47;5092070;28;20200;-72
2022/05/21 01:02:47;;;;;;;2.63;1.63;;;;;;;12.51;100.00;62140.38;5092275;28;20211;-72
2022/05/21 01:05:19;;;;;;;2.30;1.40;;;;;;;12.45;100.00;62136.50;5092052;28;20641;-72
2022/05/21 01:07:50;;;;;;;1.67;1.47;;;;;;;12.42;100.00;62128.16;5092094;28;20223;-73
2022/05/21 01:10:21;;;;;;;2.37;1.50;;;;;;;12.32;100.00;62122.53;5091976;28;20272;-70
2022/05/21 01:12:50;;;;;;;4.63;1.73;;;;;;;12.37;100.00;62122.81;5091881;28;20199;-72
2022/05/21 01:15:20;;;;;;;3.77;1.57;;;;;;;12.41;100.00;62129.66;5092146;28;20195;-72
2022/05/21 01:17:47;;;;;;;2.57;1.57;;;;;;;12.42;100.00;62128.16;5091797;28;20200;-71
2022/05/21 01:20:18;;;;;;;5.00;1.70;;;;;;;12.39;100.00;62132.63;5091789;28;20631;-71
2022/05/21 01:22:48;;;;;;;4.27;1.60;;;;;;;12.44;100.00;62129.75;5091743;28;20239;-72
2022/05/21 01:25:19;;;;;;;1.90;1.40;;;;;;;11.84;100.00;62076.69;5091663;28;20207;-73
2022/05/21 01:27:48;;;;;;;3.10;1.67;;;;;;;12.36;100.00;62126.81;5091582;28;20199;-72
2022/05/21 01:30:19;;;;;;;3.90;1.83;;;;;;;12.41;100.00;62129.66;5091633;28;20620;-72
2022/05/21 01:32:47;;;;;;;2.77;1.60;;;;;;;12.32;100.00;62119.97;5091640;28;20215;-72
2022/05/21 01:35:14;;;;;;;4.70;1.70;;;;;;;12.26;100.00;62111.00;5091556;28;20294;-73
2022/05/21 01:37:41;;;;;;;4.37;1.70;;;;;;;12.41;100.00;62129.66;5091478;28;20204;-72
2022/05/21 01:40:11;;;;;;;1.70;1.30;;;;;;;12.34;100.00;62119.56;5091677;28;20236;-71
2022/05/21 01:42:39;;;;;;;2.50;1.70;;;;;;;12.27;100.00;62114.63;5091731;28;20609;-71
2022/05/21 01:45:07;;;;;;;15.37;2.17;;;;;;;12.28;100.00;62115.69;5091750;28;20206;-73
2022/05/21 01:47:41;;;;;;;11.67;2.40;;;;;;;11.30;100.00;62013.09;5091414;28;20204;-72
2022/05/21 01:50:09;;;;;;;6.53;2.50;;;;;;;12.13;100.00;62099.59;5091324;28;20199;-71
2022/05/21 01:52:36;;;;;;;3.90;2.03;;;;;;;12.08;100.00;62091.69;5091531;28;20206;-72
2022/05/21 01:55:03;;;;;;;5.30;1.80;;;;;;;11.84;100.00;62071.56;5091301;28;20658;-72
2022/05/21 01:57:31;;;;;;;5.93;3.13;;;;;;;11.85;100.00;62067.53;5091290;28;20200;-73
2022/05/21 01:59:59;;;;;;;6.10;2.80;;;;;;;11.82;100.00;62063.78;5093339;28;20195;-72
2022/05/21 02:02:26;;;;;;;12.47;4.37;;;;;;;11.74;100.00;62058.28;5095016;28;20227;-72
2022/05/21 02:04:53;;;;;;;12.10;6.37;;;;;;;11.61;100.00;62043.81;5095349;28;20286;-73
2022/05/21 02:07:21;;;;;;;13.80;6.70;;;;;;;11.71;100.00;62054.53;5095537;28;20579;-72
2022/05/21 02:09:48;;;;;;;13.67;6.33;;;;;;;11.60;100.00;62042.72;5095283;28;20227;-73
2022/05/21 02:12:16;;;;;;;10.23;5.07;;;;;;;11.46;100.00;62027.69;5095170;28;20207;-72
2022/05/21 02:14:44;;;;;;;7.33;3.70;;;;;;;11.54;100.00;62036.81;5095064;28;20677;-71
2022/05/21 02:17:11;;;;;;;6.87;3.40;;;;;;;11.52;100.00;62031.59;5095125;28;20253;-71
2022/05/21 02:19:38;;;;;;;8.53;4.10;;;;;;;11.31;100.00;62006.53;5095040;28;20809;-73
2022/05/21 02:22:05;;;;;;;8.93;4.10;;;;;;;11.13;100.00;61990.31;5095202;28;20256;-71
2022/05/21 02:24:32;;;;;;;7.60;3.40;;;;;;;11.00;100.00;61982.03;5095059;28;20199;-73
2022/05/21 02:27:00;;;;;;;11.27;3.70;;;;;;;11.11;100.00;61992.75;5095026;28;20199;-71
2022/05/21 02:29:26;;;;;;;10.67;3.30;;;;;;;11.13;100.00;61992.84;5094883;28;20284;-73
2022/05/21 02:31:54;;;;;;;11.43;3.53;;;;;;;11.21;100.00;62003.97;5094815;28;20607;-70
2022/05/21 02:34:22;;;;;;;8.23;2.90;;;;;;;11.13;100.00;61994.88;5094914;28;20316;-72
2022/05/21 02:39:33;;;;;;;8.20;2.67;;;;;;;11.25;100.00;62002.66;5094922;28;20586;-72
2022/05/21 02:42:02;;;;;;;7.20;3.00;;;;;;;11.07;100.00;61988.44;5093588;28;20239;-72
2022/05/21 02:44:30;;;;;;;4.53;2.80;;;;;;;10.89;100.00;61970.22;5095088;28;20261;-71
2022/05/21 02:47:02;;;;;;;10.30;3.10;;;;;;;10.99;100.00;61980.94;5096743;28;20293;-71
2022/05/21 02:49:29;;;;;;;8.50;3.10;;;;;;;10.58;100.00;61937.00;5094721;28;20227;-73
2022/05/21 02:51:57;;;;;;;6.93;2.70;;;;;;;11.05;100.00;61981.72;5094701;28;20199;-71
2022/05/21 02:54:24;;;;;;;6.93;2.70;;;;;;;10.95;100.00;61974.09;5094501;28;20204;-73
2022/05/21 02:56:51;;;;;;;8.30;3.37;;;;;;;10.94;100.00;61970.50;5094483;28;20196;-71
2022/05/21 02:59:19;;;;;;;6.77;3.13;;;;;;;10.95;100.00;61971.56;5094336;28;20192;-72
2022/05/21 03:01:45;;;;;;;8.00;3.40;;;;;;;10.98;100.00;61979.34;5094276;28;20199;-72
2022/05/21 03:04:14;;;;;;;18.20;3.83;;;;;;;10.84;100.00;61962.31;5094431;28;20261;-71
2022/05/21 03:06:41;;;;;;;7.43;3.60;;;;;;;10.93;100.00;61969.41;5094236;28;20282;-74
2022/05/21 03:11:52;;;;;;;6.00;3.77;;;;;;;10.86;100.00;61959.38;5093876;28;20537;-72
2022/05/21 03:14:19;;;;;;;6.23;3.87;;;;;;;10.78;100.00;61953.34;5094125;28;20747;-71
2022/05/21 03:16:46;;;;;;;14.00;4.50;;;;;;;10.92;100.00;61970.91;5094138;28;20252;-73
2022/05/21 03:19:15;;;;;;;16.63;4.67;;;;;;;10.97;100.00;61973.69;5094233;28;20679;-72
2022/05/21 03:21:42;;;;;;;13.03;4.20;;;;;;;10.61;100.00;61935.13;5093905;28;20212;-72
2022/05/21 03:24:10;;;;;;;11.63;4.03;;;;;;;11.10;100.00;61989.66;5093878;28;20257;-72
2022/05/21 03:26:36;;;;;;;21.87;5.17;;;;;;;10.88;100.00;61971.16;5093392;28;20199;-72
2022/05/21 03:29:03;;;;;;;19.63;4.90;;;;;;;10.93;100.00;61969.41;5093859;28;20234;-72
2022/05/21 03:31:30;;;;;;;6.27;2.50;;;;;;;11.02;100.00;61981.06;5093608;28;20284;-72
2022/05/21 03:33:59;;;;;;;9.87;2.80;;;;;;;11.13;100.00;61994.88;5093609;28;20211;-73
2022/05/21 03:36:27;;;;;;;5.23;2.20;;;;;;;11.27;100.00;62007.88;5093559;28;20299;-72
2022/05/21 03:38:55;;;;;;;5.10;2.20;;;;;;;11.30;100.00;62008.00;5093419;28;20253;-72
2022/05/21 03:41:22;;;;;;;6.03;2.13;;;;;;;11.37;100.00;62018.59;5093688;28;20297;-72
2022/05/21 03:43:50;;;;;;;4.37;2.50;;;;;;;10.63;100.00;61936.72;5093780;28;20195;-72
2022/05/21 03:46:18;;;;;;;6.27;1.67;;;;;;;11.44;100.00;62023.00;5093808;28;20203;-74
2022/05/21 03:48:47;;;;;;;3.37;2.10;;;;;;;11.60;100.00;62040.16;5093485;28;20322;-73
2022/05/21 03:51:14;;;;;;;3.80;1.73;;;;;;;11.55;100.00;62037.38;5093564;28;20207;-71
2022/05/21 03:53:42;;;;;;;4.03;2.00;;;;;;;11.74;100.00;62058.28;5093145;28;20732;-72
2022/05/21 03:56:10;;;;;;;4.57;2.27;;;;;;;10.98;100.00;61977.31;5093104;28;20666;-71
2022/05/21 03:58:38;;;;;;;8.20;3.00;;;;;;;12.02;100.00;62085.25;5093142;28;20203;-72
2022/05/21 04:01:05;;;;;;;4.20;2.50;;;;;;;12.14;100.00;62098.09;5093286;28;20235;-73
2022/05/21 04:03:34;;;;;;;8.67;2.50;;;;;;;12.25;100.00;62109.38;5092877;28;20196;-72
2022/05/21 04:06:03;;;;;;;9.97;3.27;;;;;;;12.38;100.00;62123.88;5093451;28;20282;-72
2022/05/21 04:08:30;;;;;;;10.93;3.60;;;;;;;11.50;100.00;62029.44;5092976;28;20196;-72
2022/05/21 04:10:58;;;;;;;12.33;4.00;;;;;;;12.49;100.00;62138.22;5093268;28;20204;-72
2022/05/21 04:13:26;;;;;;;8.67;3.73;;;;;;;12.55;100.00;62144.13;5093344;28;20196;-71
2022/05/21 04:15:53;;;;;;;6.37;3.53;;;;;;;12.67;100.00;62154.47;5093231;28;20589;-72
2022/05/21 04:18:23;;;;;;;6.70;3.63;;;;;;;12.84;100.00;62172.19;5093465;28;20200;-72
2022/05/21 04:20:49;;;;;;;5.73;3.20;;;;;;;12.96;100.00;62185.06;5093225;28;20199;-72
2022/05/21 04:23:17;;;;;;;11.37;3.47;;;;;;;12.99;100.00;62190.84;5091972;28;20199;-72
2022/05/21 04:25:46;;;;;;;7.33;3.17;;;;;;;13.33;100.00;62229.94;5092698;28;20192;-72
2022/05/21 04:28:14;;;;;;;12.87;3.57;;;;;;;13.58;100.00;62256.81;5092883;28;20282;-72
2022/05/21 04:30:41;;;;;;;7.53;3.30;;;;;;;13.78;100.00;62272.63;5092575;28;20227;-72
2022/05/21 04:33:08;;;;;;;8.00;3.80;;;;;;;13.83;100.00;62278.00;5092448;28;20219;-72
2022/05/21 04:38:19;;;;;;;20.57;4.60;;;;;;;13.52;100.00;62250.34;5092529;28;20626;-73
2022/05/21 04:40:47;;;;;;;11.33;3.73;;;;;;;13.96;100.00;62297.63;5092151;28;20292;-72
2022/05/21 04:43:15;;;;;;;10.50;3.67;;;;;;;14.01;100.00;62299.91;5092300;28;20584;-71
2022/05/21 04:45:42;;;;;;;7.13;3.10;;;;;;;14.04;100.00;62303.69;5092218;28;20203;-71
2022/05/21 04:48:10;;;;;;;10.67;3.43;;;;;;;14.22;100.00;62320.47;5092274;28;20199;-72
2022/05/21 04:50:38;;;;;;;7.77;3.80;;;;;;;14.47;100.00;62348.84;5093123;28;20260;-72
2022/05/21 04:53:06;;;;;;;6.20;2.80;;;;;;;14.65;100.00;62365.66;5095748;28;20256;-71
2022/05/21 04:55:33;;;;;;;5.27;2.90;;;;;;;14.67;100.00;62367.81;5091895;28;20207;-71
2022/05/21 04:58:01;;;;;;;8.57;3.07;;;;;;;14.64;100.00;62364.56;5092216;28;20637;-73
2022/05/21 05:00:29;;;;;;;7.13;2.20;;;;;;;14.89;100.00;62394.56;5091948;28;20728;-71
2022/05/21 05:02:55;;;;;;;6.97;3.50;;;;;;;14.91;100.00;62393.63;5092251;28;20733;-73
2022/05/21 05:05:23;;;;;;;8.43;3.63;;;;;;;14.92;100.00;62399.81;5092116;28;20265;-73
2022/05/21 05:07:51;;;;;;;8.13;3.50;;;;;;;15.17;100.00;62424.16;5091881;28;20223;-74
2022/05/21 05:10:18;;;;;;;7.97;3.33;;;;;;;15.14;100.00;62418.91;5091676;28;20292;-72
2022/05/21 05:12:45;;;;;;;9.87;3.27;;;;;;;14.82;100.00;62384.47;5091722;28;20234;-73
2022/05/21 05:15:12;;;;;;;8.10;3.67;;;;;;;14.99;100.00;62407.38;5091935;28;20195;-73
2022/05/21 05:17:40;;;;;;;5.97;3.10;;;;;;;15.09;100.00;62413.00;5091952;28;20203;-73
2022/05/21 05:20:11;;;;;;;8.07;3.97;;;;;;;14.59;100.00;62359.19;5091933;28;20662;-72
2022/05/21 05:22:37;;;;;;;16.40;4.37;;;;;;;15.18;100.00;62427.78;5091898;28;20282;-72
2022/05/21 05:25:07;;;;;;;18.67;5.10;;;;;;;14.86;100.00;62388.22;5092268;28;20199;-71
2022/05/21 05:27:34;;;;;;;12.63;5.00;;;;;;;15.21;100.00;62423.34;5091820;28;20235;-72
2022/05/21 05:30:01;;;;;;;16.50;6.63;;;;;;;15.62;100.00;62469.50;5091949;28;20276;-72
2022/05/21 05:32:28;;;;;;;11.27;4.80;;;;;;;15.24;100.00;62429.13;5091799;28;20238;-72
2022/05/21 05:35:15;;;;;;;12.37;4.23;;;;;;;15.72;100.00;62483.38;5091379;28;20735;-76
2022/05/21 05:37:42;;;;;;;12.37;4.50;;;;;;;15.22;100.00;62427.50;5073596;28;20203;-72
2022/05/21 05:40:17;;;;;;;14.50;4.77;;;;;;;16.25;100.00;62536.81;5091968;28;20251;-73
2022/05/21 05:42:48;;;;;;;18.10;4.77;;;;;;;16.52;100.00;62565.94;5091754;28;20195;-72
2022/05/21 05:45:16;;;;;;;16.43;4.73;;;;;;;16.13;100.00;62523.88;5091548;28;20238;-72
2022/05/21 05:47:43;;;;;;;13.27;4.63;;;;;;;16.91;100.00;62610.53;5091316;28;20717;-72
2022/05/21 05:50:11;;;;;;;15.27;5.03;;;;;;;16.24;100.00;62538.31;5091367;28;20241;-73
2022/05/21 05:52:39;;;;;;;14.87;5.40;;;;;;;16.71;100.00;62588.97;5091467;28;20268;-72
2022/05/21 05:55:06;;;;;;;12.60;5.30;;;;;;;16.58;100.00;62577.53;5091458;28;20670;-72
2022/05/21 05:57:34;;;;;;;14.07;5.53;;;;;;;16.77;100.00;62592.88;5073450;28;20242;-71
2022/05/21 06:00:00;;;;;;;19.13;6.17;;;;;;;16.80;100.00;62596.09;5091365;28;20662;-72
2022/05/21 06:05:15;;;;;;;23.83;7.10;;;;;;;18.02;100.00;62724.56;5091540;28;20248;-72
2022/05/21 06:07:44;;;;;;;26.87;7.63;;;;;;;17.80;100.00;62703.41;5091223;28;20204;-72
2022/05/21 06:10:14;;;;;;;27.47;7.63;;;;;;;17.82;100.00;62707.59;5091149;28;20313;-73
2022/05/21 06:12:41;;;;;;;17.03;7.60;;;;;;;18.15;100.00;62741.16;5091025;28;20196;-72
2022/05/21 06:15:10;;;;;;;22.07;7.50;;;;;;;18.56;100.00;62784.91;5091038;28;20253;-71
2022/05/21 06:17:37;;;;;;;23.83;7.07;;;;;;;18.58;100.00;62786.53;5091085;28;20700;-71
2022/05/21 06:20:04;;;;;;;12.50;5.97;;;;;;;18.44;100.00;62769.91;5090872;28;20203;-73
2022/05/21 06:22:32;;;;;;;18.63;6.37;;;;;;;18.40;100.00;62772.78;5090863;28;20195;-72
2022/05/21 06:25:02;;;;;;;19.30;7.67;;;;;;;18.68;100.00;62800.44;5090986;28;20253;-72
2022/05/21 06:27:28;;;;;;;17.23;6.43;;;;;;;18.50;100.00;62781.56;5090979;28;20720;-73
2022/05/21 06:29:56;;;;;;;14.93;5.70;;;;;;;18.57;100.00;62786.00;5091212;28;20231;-72
2022/05/21 06:32:23;;;;;;;11.10;5.90;;;;;;;19.19;100.00;62852.94;5090995;28;20206;-72
2022/05/21 06:34:50;;;;;;;22.93;7.17;;;;;;;19.19;100.00;62858.13;5091063;28;20196;-72
2022/05/21 06:37:16;;;;;;;15.43;6.00;;;;;;;19.18;100.00;62851.88;5091109;28;20253;-72
2022/05/21 06:39:43;;;;;;;12.17;5.10;;;;;;;19.55;100.00;62891.31;5090954;28;20307;-72
2022/05/21 06:42:12;;;;;;;13.83;5.80;;;;;;;19.60;100.00;62896.19;5090758;28;20308;-73
2022/05/21 06:44:41;;;;;;;10.67;5.47;;;;;;;20.05;100.00;62944.81;5091116;28;20282;-74
2022/05/21 06:47:09;;;;;;;18.63;5.90;;;;;;;20.40;100.00;62985.28;5094294;28;20195;-72
2022/05/21 06:49:36;;;;;;;24.40;7.13;;;;;;;20.70;100.00;63017.72;5094381;28;20698;-72
2022/05/21 06:52:03;;;;;;;19.13;6.13;;;;;;;20.71;100.00;63013.63;5095004;28;20196;-73
2022/05/21 06:54:30;;;;;;;16.87;5.87;;;;;;;20.32;100.00;62970.91;5094622;28;20207;-73
2022/05/21 06:56:57;;;;;;;12.10;5.27;;;;;;;20.85;100.00;63028.75;5094445;28;20625;-72
2022/05/21 06:59:25;;;;;;;18.43;5.33;;;;;;;20.16;100.00;62956.72;5094287;28;20736;-72
2022/05/21 07:01:52;;;;;;;14.07;5.53;;;;;;;20.81;100.00;63021.84;5094507;28;20200;-73
2022/05/21 07:07:32;;;;;;;11.87;5.27;;;;;;;20.87;100.00;63032.97;5094355;28;20200;-71
2022/05/21 07:09:57;;;;;;;5.93;4.10;;;;;;;21.10;100.00;63055.31;5094447;28;20223;-73
2022/05/21 07:12:23;;;;;;;12.47;3.93;;;;;;;21.37;100.00;63086.56;5094134;28;20204;-73
2022/05/21 07:14:52;;;;;;;14.10;4.50;;;;;;;21.45;100.00;63100.94;5094119;28;20196;-73
2022/05/21 07:17:19;;;;;;;11.53;4.37;;;;;;;21.75;100.00;63128.25;5093812;28;20204;-73
2022/05/21 07:19:46;;;;;;;16.13;5.23;;;;;;;22.05;100.00;63160.22;5093818;28;20203;-71
2022/05/21 07:22:13;;;;;;;6.87;3.77;;;;;;;22.29;100.00;63181.03;5094043;28;20260;-72
2022/05/21 07:24:43;;;;;;;11.40;3.50;;;;;;;22.33;100.00;63190.53;5075866;28;20208;-71
2022/05/21 07:27:10;;;;;;;10.50;4.10;;;;;;;22.28;100.00;63189.75;5093830;28;20303;-74
2022/05/21 07:29:38;;;;;;;14.43;4.10;;;;;;;22.17;100.00;63175.81;5075440;28;20207;-73
2022/05/21 07:32:17;;;;;;;8.43;4.27;;;;;;;22.02;100.00;63156.97;5094175;28;20253;-72
2022/05/21 07:34:44;;;;;;;7.30;4.43;;;;;;;22.06;100.00;63161.28;5093822;28;20272;-73
2022/05/21 07:37:11;;;;;;;8.27;4.50;;;;;;;22.04;100.00;63156.53;5094002;28;20204;-73
2022/05/21 07:39:38;;;;;;;12.50;3.77;;;;;;;22.20;100.00;63176.44;5093485;28;20200;-72
2022/05/21 07:42:06;;;;;;;7.10;3.87;;;;;;;22.65;100.00;63225.25;5093048;28;20243;-72
2022/05/21 07:44:33;;;;;;;15.23;4.93;;;;;;;22.96;100.00;63257.75;5093695;28;20200;-73
2022/05/21 07:47:01;;;;;;;13.03;4.03;;;;;;;22.83;100.00;63243.66;5093570;28;20249;-73
2022/05/21 07:49:29;;;;;;;8.17;3.73;;;;;;;23.05;100.00;63262.84;5093187;28;20658;-73
2022/05/21 07:51:57;;;;;;;10.77;4.30;;;;;;;23.33;100.00;63297.88;5093479;28;20200;-72
2022/05/21 07:54:24;;;;;;;6.23;3.97;;;;;;;22.84;100.00;63244.75;5093260;28;20206;-72
2022/05/21 07:56:51;;;;;;;19.90;4.83;;;;;;;22.85;100.00;63245.81;5093280;28;20200;-72
2022/05/21 07:59:18;;;;;;;11.77;4.10;;;;;;;23.29;100.00;63299.25;5093374;28;20560;-73
2022/05/21 08:01:44;;;;;;;8.93;3.70;;;;;;;23.16;100.00;63279.44;5093061;28;20203;-73
2022/05/21 08:04:12;;;;;;;7.13;3.60;;;;;;;23.36;100.00;63298.53;5093248;28;20196;-74
2022/05/21 08:06:41;;;;;;;9.37;3.80;;;;;;;23.85;100.00;63353.72;5092909;28;20192;-74
2022/05/21 08:09:08;;;;;;;8.83;3.60;;;;;;;23.72;100.00;63334.97;5092982;28;20683;-72
2022/05/21 08:11:37;;;;;;;9.83;3.57;;;;;;;23.88;100.00;63354.38;5092706;28;20231;-72
2022/05/21 08:14:05;;;;;;;4.77;3.40;;;;;;;23.99;100.00;63369.44;5092754;28;20199;-72
2022/05/21 08:16:32;;;;;;;14.33;3.83;;;;;;;23.80;100.00;63348.84;5092882;28;20200;-71
2022/05/21 08:19:01;;;;;;;5.43;3.30;;;;;;;24.73;100.00;63451.34;5092901;28;20253;-74
2022/05/21 08:21:28;;;;;;;8.37;3.47;;;;;;;24.82;98.03;63459.03;5092589;28;20230;-73
2022/05/21 08:27:01;;;;;;;12.73;3.77;;;;;;;24.70;90.47;63440.78;5092650;28;20273;-72
2022/05/21 08:29:31;;;;;;;9.70;3.30;;;;;;;25.46;89.67;63528.00;5092467;28;20239;-72
2022/05/21 08:32:00;;;;;;;9.40;3.60;;;;;;;25.38;82.97;63521.34;5092235;28;20231;-73
2022/05/21 08:34:28;;;;;;;7.70;3.50;;;;;;;25.05;82.89;63483.47;5092308;28;20218;-71
2022/05/21 08:36:55;;;;;;;6.40;3.40;;;;;;;24.44;90.86;63414.63;5092393;28;20736;-72
2022/05/21 08:39:24;;;;;;;7.00;3.27;;;;;;;24.99;97.86;63476.97;5092258;28;20212;-72
2022/05/21 08:41:54;;;;;;;6.40;2.80;;;;;;;25.31;99.08;63511.16;5092327;28;20706;-72
2022/05/21 08:44:39;;;;;;;7.43;2.80;;;;;;;25.72;88.07;63550.50;5092273;28;20208;-73
2022/05/21 08:47:19;;;;;;;11.80;3.30;;;;;;;26.20;89.45;63602.13;5092243;28;20206;-72
2022/05/21 08:49:55;;;;;;;11.80;3.17;;;;;;;25.95;83.15;63578.09;5092373;28;20677;-71
2022/05/21 08:52:26;;;;;;;11.40;3.30;;;;;;;26.24;80.68;63611.72;5093223;28;20751;-73
2022/05/21 08:54:58;;;;;;;10.70;3.13;;;;;;;26.48;78.06;63635.19;5093421;28;20205;-72
2022/05/21 08:57:29;;;;;;;9.10;3.03;;;;;;;26.74;71.72;63666.09;5093092;28;20191;-72
2022/05/21 09:00:11;;;;;;;7.63;2.87;;;;;;;26.90;71.83;63678.25;5092050;28;20276;-74
2022/05/21 09:02:38;;;;;;;10.87;3.47;;;;;;;26.19;69.39;63601.03;5091746;28;20199;-73
2022/05/21 09:05:09;;;;;;;10.53;3.47;;;;;;;26.38;80.52;63626.94;5091987;28;20195;-72
2022/05/21 09:07:51;;;;;;;9.43;3.23;;;;;;;26.46;77.11;63635.63;5091756;28;20204;-73
2022/05/21 09:10:31;;;;;;;7.93;2.90;;;;;;;27.14;70.67;63703.81;5091943;28;20702;-71
2022/05/21 09:13:12;;;;;;;12.03;3.63;;;;;;;27.16;69.26;63711.22;5092296;28;20195;-72
2022/05/21 09:18:25;;;;;;;9.63;3.47;;;;;;;28.15;62.70;63818.47;5091981;28;20636;-72
2022/05/21 09:20:58;;;;;;;7.57;3.07;;;;;;;28.05;62.42;63802.34;5091470;28;20665;-71
2022/05/21 09:23:25;;;;;;;8.00;3.40;;;;;;;28.28;58.54;63832.63;5091630;28;20192;-72
2022/05/21 09:26:06;;;;;;;4.70;2.73;;;;;;;28.28;56.60;63832.63;5091470;28;20245;-72
2022/05/21 09:28:37;;;;;;;8.73;3.10;;;;;;;28.42;57.84;63853.09;5091440;28;20666;-73
2022/05/21 09:31:06;;;;;;;9.07;2.83;;;;;;;28.32;55.02;63839.59;5091771;28;20246;-72
2022/05/21 09:33:37;;;;;;;9.83;3.53;;;;;;;28.44;58.76;63850.03;5091322;28;20698;-72
2022/05/21 09:36:05;;;;;;;11.87;3.10;;;;;;;28.80;56.63;63884.03;5091669;28;20191;-72
2022/05/21 09:38:34;;;;;;;7.83;3.70;;;;;;;28.54;54.84;63860.94;5091491;28;20225;-73
2022/05/21 09:41:10;;;;;;;5.30;3.23;;;;;;;28.47;49.22;63850.69;5091440;28;20231;-73
2022/05/21 09:46:26;;;;;;;6.43;2.87;;;;;;;28.58;55.20;63865.31;5060298;28;20215;-73
2022/05/21 09:48:55;;;;;;;7.47;2.83;;;;;;;29.06;54.07;63917.59;5091765;28;20199;-73
2022/05/21 09:51:25;;;;;;;4.37;2.67;;;;;;;29.26;51.67;63940.97;5090915;28;20697;-73
2022/05/21 09:53:52;;;;;;;10.40;2.80;;;;;;;28.60;49.58;63867.47;5091182;28;20754;-73
2022/05/21 09:56:23;;;;;;;10.93;3.03;;;;;;;29.81;47.06;63995.66;5090757;28;20210;-72
2022/05/21 09:59:09;;;;;;;6.40;2.97;;;;;;;29.92;46.11;64010.28;5091052;28;20226;-73
2022/05/21 10:01:39;;;;;;;14.00;3.47;;;;;;;29.73;44.95;63984.31;5091495;28;20287;-73
2022/05/21 10:04:19;;;;;;;6.90;2.67;;;;;;;29.77;41.63;63994.47;5091575;28;20191;-72
2022/05/21 10:06:52;;;;;;;9.33;2.73;;;;;;;29.92;42.66;64010.81;5091196;28;20205;-71
2022/05/21 10:12:17;;;;;;;4.17;2.47;;;;;;;30.15;40.33;64035.38;5091198;28;20776;-72
2022/05/21 10:14:50;;;;;;;8.80;2.60;;;;;;;30.41;43.07;64063.75;5091332;28;20200;-72
2022/05/21 10:17:27;;;;;;;14.13;3.00;;;;;;;30.44;41.98;64061.75;5091103;28;20744;-71
2022/05/21 10:19:59;;;;;;;4.07;2.30;;;;;;;30.62;43.66;64089.28;5091612;28;20643;-74
2022/05/21 10:22:43;;;;;;;4.03;2.50;;;;;;;30.92;42.05;64113.06;5095068;28;20267;-72
2022/05/21 10:25:14;;;;;;;5.33;2.23;;;;;;;31.17;39.86;64145.59;5095578;28;20202;-73
2022/05/21 10:28:17;;;;;;;4.13;2.23;;;;;;;31.14;40.88;64142.31;5094656;28;20718;-72
2022/05/21 10:31:05;;;;;;;6.43;2.67;;;;;;;30.99;38.97;64120.69;5075609;28;20582;-73
2022/05/21 10:33:51;;;;;;;4.03;2.40;;;;;;;30.48;37.61;64071.38;5095084;28;20222;-73
2022/05/21 10:36:31;;;;;;;2.83;1.87;;;;;;;30.21;35.50;64041.91;5090559;28;20252;-73
2022/05/21 10:39:18;;;;;;;4.33;2.23;;;;;;;30.06;39.99;64022.94;5094886;28;20291;-72
2022/05/21 10:42:05;;;;;;;3.07;2.30;;;;;;;30.52;40.83;64075.75;5094744;28;20726;-73
2022/05/21 10:44:44;;;;;;;3.33;2.10;;;;;;;31.01;41.00;64126.03;5094366;28;20750;-73
2022/05/21 10:47:24;;;;;;;3.77;2.37;;;;;;;31.56;41.05;64185.56;5094861;28;20603;-74
2022/05/21 10:50:17;;;;;;;8.00;2.30;;;;;;;32.03;39.32;64239.53;5076657;28;20206;-74
2022/05/21 10:53:06;;;;;;;5.30;2.23;;;;;;;31.87;38.32;64216.78;5094972;28;20300;-72
2022/05/21 10:55:41;;;;;;;8.07;2.47;;;;;;;31.99;36.23;64237.81;5095071;28;20196;-72
2022/05/21 10:58:25;;;;;;;5.07;2.10;;;;;;;31.21;33.63;64149.97;5094906;28;20199;-73
2022/05/21 11:01:05;;;;;;;3.13;2.13;;;;;;;31.26;33.45;64155.97;5094965;28;20195;-73
2022/05/21 11:03:45;;;;;;;3.93;2.33;;;;;;;31.26;35.18;64155.97;5094410;28;20210;-73
2022/05/21 11:06:21;;;;;;;3.53;1.90;;;;;;;31.44;35.01;64175.09;5094294;28;20287;-73
2022/05/21 11:09:01;;;;;;;4.47;1.80;;;;;;;31.96;32.59;64231.34;5094423;28;20641;-72
2022/05/21 11:11:36;;;;;;;3.70;1.90;;;;;;;31.54;31.67;64186.56;5094180;28;20314;-74
2022/05/21 11:14:10;;;;;;;2.10;1.90;;;;;;;31.31;32.12;64160.88;5094206;28;20245;-74
2022/05/21 11:16:46;;;;;;;5.40;2.30;;;;;;;31.60;34.11;64182.56;5094060;28;20196;-74
2022/05/21 11:19:20;;;;;;;4.57;2.00;;;;;;;32.01;33.82;64232.09;5094335;28;20222;-74
2022/05/21 11:21:52;;;;;;;3.30;2.10;;;;;;;32.36;34.69;64270.31;5093941;28;20201;-73
2022/05/21 11:24:29;;;;;;;4.37;2.27;;;;;;;32.79;33.94;64318.84;5094237;28;20197;-72
2022/05/21 11:27:00;;;;;;;2.03;1.83;;;;;;;32.93;32.58;64337.34;5093790;28;20614;-72
2022/05/21 11:29:36;;;;;;;4.83;2.30;;;;;;;32.93;32.99;64336.78;5093909;28;20193;-73
2022/05/21 11:37:42;;;;;;;5.70;2.13;;;;;;;32.63;33.11;64304.56;5093599;28;20679;-74
2022/05/21 11:40:30;;;;;;;4.30;2.10;;;;;;;32.42;32.78;64282.13;5093585;28;20748;-72
2022/05/21 11:42:57;;;;;;;3.87;2.50;;;;;;;32.36;32.61;64275.59;5093705;28;20201;-74
2022/05/21 11:45:26;;;;;;;3.37;2.23;;;;;;;32.29;33.61;64267.94;5093514;28;20663;-73
2022/05/21 11:48:13;;;;;;;5.37;2.27;;;;;;;32.82;34.10;64324.78;5093383;28;20201;-73
2022/05/21 11:50:40;;;;;;;3.07;2.37;;;;;;;33.17;33.70;64363.06;5093780;28;20221;-73
2022/05/21 11:53:10;;;;;;;4.83;1.80;;;;;;;33.27;35.53;64373.97;5093277;28;20199;-73
2022/05/21 11:55:58;;;;;;;6.43;2.27;;;;;;;33.34;34.18;64379.00;5093324;28;20258;-73
2022/05/21 11:59:08;;;;;;;3.57;2.20;;;;;;;33.69;33.88;64416.72;5093135;28;20688;-72
2022/05/21 12:02:00;;;;;;;4.07;2.33;;;;;;;33.78;34.00;64429.78;5093157;28;20560;-73
2022/05/21 12:04:49;;;;;;;7.13;2.23;;;;;;;33.56;34.78;64403.09;5093098;28;20747;-71
2022/05/21 12:07:17;;;;;;;5.80;2.20;;;;;;;33.71;33.33;64422.13;5075344;28;20296;-73
2022/05/21 12:10:01;;;;;;;4.87;1.97;;;;;;;33.93;33.56;64445.63;5093037;28;20195;-73
2022/05/21 12:12:30;;;;;;;5.37;2.33;;;;;;;33.79;34.96;64430.88;5074897;28;20253;-73